createdAt,value
2023-02-22T00:00:59.840Z,2.17
2023-02-22T00:03:32.408Z,2.47
2023-02-22T00:06:05.211Z,2.95
2023-02-22T00:08:36.836Z,2.60
2023-02-22T00:11:10.141Z,2.37
2023-02-22T00:13:38.548Z,1.98
2023-02-22T00:16:06.573Z,2.40
2023-02-22T00:18:34.033Z,2.40
2023-02-22T00:21:01.739Z,2.72
2023-02-22T00:23:31.744Z,2.80
2023-02-22T00:26:00.421Z,2.87
2023-02-22T00:28:28.141Z,3.00
2023-02-22T00:30:55.892Z,2.87
2023-02-22T00:33:23.618Z,3.00
2023-02-22T00:35:51.405Z,4.00
2023-02-22T00:38:19.351Z,3.05
2023-02-22T00:40:46.860Z,3.42
2023-02-22T00:43:14.946Z,3.67
2023-02-22T00:45:42.624Z,3.90
2023-02-22T00:48:10.782Z,4.00
2023-02-22T00:50:38.529Z,3.22
2023-02-22T00:53:07.438Z,3.40
2023-02-22T00:55:36.388Z,3.35
2023-02-22T00:58:05.203Z,2.90
2023-02-22T01:00:38.642Z,3.17
2023-02-22T01:03:10.677Z,3.12
2023-02-22T01:05:38.411Z,3.22
2023-02-22T01:08:08.264Z,2.60
2023-02-22T01:10:36.575Z,2.75
2023-02-22T01:13:09.175Z,2.90
2023-02-22T01:15:38.723Z,2.53
2023-02-22T01:18:06.686Z,3.20
2023-02-22T01:20:34.612Z,3.20
2023-02-22T01:23:06.383Z,3.10
2023-02-22T01:25:34.784Z,2.50
2023-02-22T01:28:03.645Z,3.30
2023-02-22T01:30:34.559Z,3.08
2023-02-22T01:33:03.990Z,3.15
2023-02-22T01:35:35.920Z,6.70
2023-02-22T01:38:03.439Z,9.13
2023-02-22T01:40:34.461Z,6.68
2023-02-22T01:43:10.952Z,4.45
2023-02-22T01:45:44.654Z,4.68
2023-02-22T01:48:17.447Z,4.97
2023-02-22T01:53:27.157Z,5.40
2023-02-22T01:55:55.074Z,8.88
2023-02-22T01:58:24.841Z,8.10
2023-02-22T02:00:52.287Z,7.45
2023-02-22T02:03:27.684Z,7.65
2023-02-22T02:05:59.098Z,6.12
2023-02-22T02:08:49.884Z,6.12
2023-02-22T02:11:24.665Z,6.43
2023-02-22T02:13:57.431Z,6.50
2023-02-22T02:16:31.206Z,5.97
2023-02-22T02:18:58.599Z,5.12
2023-02-22T02:21:38.606Z,5.97
2023-02-22T02:24:30.178Z,5.87
2023-02-22T02:27:18.962Z,5.62
2023-02-22T02:29:52.567Z,5.60
2023-02-22T02:32:28.035Z,5.25
2023-02-22T02:35:21.567Z,5.60
2023-02-22T02:38:10.894Z,4.72
2023-02-22T02:41:04.211Z,4.55
2023-02-22T02:43:52.004Z,5.07
2023-02-22T02:46:32.094Z,5.30
2023-02-22T02:49:04.781Z,4.80
2023-02-22T02:51:39.028Z,4.95
2023-02-22T02:54:07.788Z,4.20
2023-02-22T02:56:35.631Z,4.32
2023-02-22T02:59:03.025Z,3.95
2023-02-22T03:01:36.180Z,3.92
2023-02-22T03:04:43.416Z,4.15
2023-02-22T03:07:11.103Z,3.60
2023-02-22T03:10:13.182Z,3.62
2023-02-22T03:13:15.174Z,3.78
2023-02-22T03:15:58.116Z,3.70
2023-02-22T03:18:37.003Z,4.03
2023-02-22T03:21:21.180Z,3.78
2023-02-22T03:24:01.423Z,3.80
2023-02-22T03:26:38.130Z,3.37
2023-02-22T03:29:06.944Z,3.70
2023-02-22T03:31:39.559Z,4.45
2023-02-22T03:34:12.010Z,3.83
2023-02-22T03:36:55.962Z,4.43
2023-02-22T03:39:30.879Z,3.33
2023-02-22T03:42:14.193Z,3.80
2023-02-22T03:44:43.593Z,3.97
2023-02-22T03:47:22.666Z,3.95
2023-02-22T03:50:06.934Z,3.85
2023-02-22T03:52:37.846Z,3.62
2023-02-22T03:55:11.130Z,3.75
2023-02-22T04:00:14.492Z,3.50
2023-02-22T04:02:41.970Z,4.25
2023-02-22T04:05:11.807Z,3.78
2023-02-22T04:07:39.766Z,4.28
2023-02-22T04:10:08.667Z,4.35
2023-02-22T04:12:37.947Z,4.12
2023-02-22T04:15:07.045Z,4.30
2023-02-22T04:17:34.947Z,4.20
2023-02-22T04:20:03.928Z,5.05
2023-02-22T04:22:34.326Z,5.12
2023-02-22T04:25:01.873Z,4.75
2023-02-22T04:27:29.565Z,4.53
2023-02-22T04:29:57.252Z,4.43
2023-02-22T04:32:24.849Z,4.82
2023-02-22T04:34:53.135Z,5.05
2023-02-22T04:37:20.540Z,4.72
2023-02-22T04:39:48.004Z,4.43
2023-02-22T04:42:15.836Z,5.22
2023-02-22T04:44:43.265Z,6.25
2023-02-22T04:47:10.723Z,5.95
2023-02-22T04:49:39.155Z,6.82
2023-02-22T04:52:07.110Z,7.80
2023-02-22T04:54:34.592Z,13.38
2023-02-22T04:57:02.733Z,20.98
2023-02-22T04:59:30.189Z,15.48
2023-02-22T05:02:00.727Z,9.65
2023-02-22T05:04:28.398Z,10.25
2023-02-22T05:06:55.852Z,19.20
2023-02-22T05:09:23.403Z,21.75
2023-02-22T05:11:51.117Z,20.05
2023-02-22T05:14:18.510Z,18.75
2023-02-22T05:16:45.955Z,21.12
2023-02-22T05:19:13.830Z,20.83
2023-02-22T05:21:41.363Z,21.15
2023-02-22T05:24:08.750Z,21.95
2023-02-22T05:26:36.382Z,19.70
2023-02-22T05:29:03.736Z,17.60
2023-02-22T05:31:31.161Z,17.58
2023-02-22T05:33:58.852Z,17.87
2023-02-22T05:36:28.038Z,15.40
2023-02-22T05:38:56.273Z,13.80
2023-02-22T05:41:23.982Z,11.65
2023-02-22T05:43:51.590Z,11.12
2023-02-22T05:46:19.058Z,10.40
2023-02-22T05:48:46.772Z,10.35
2023-02-22T05:51:14.345Z,11.93
2023-02-22T05:53:42.562Z,12.23
2023-02-22T05:56:10.328Z,10.73
2023-02-22T05:58:37.735Z,10.40
2023-02-22T06:01:05.345Z,10.85
2023-02-22T06:03:32.974Z,9.93
2023-02-22T06:06:00.322Z,9.32
2023-02-22T06:08:27.720Z,10.23
2023-02-22T06:10:55.356Z,7.93
2023-02-22T06:13:22.787Z,6.95
2023-02-22T06:15:50.285Z,7.10
2023-02-22T06:18:18.144Z,7.00
2023-02-22T06:20:45.488Z,6.57
2023-02-22T06:23:12.866Z,7.20
2023-02-22T06:25:40.574Z,6.65
2023-02-22T06:28:07.958Z,7.20
2023-02-22T06:30:35.512Z,6.30
2023-02-22T06:33:03.308Z,6.87
2023-02-22T06:35:30.712Z,6.70
2023-02-22T06:37:58.081Z,6.12
2023-02-22T06:40:29.492Z,7.18
2023-02-22T06:42:58.410Z,7.30
2023-02-22T06:45:26.460Z,8.10
2023-02-22T06:47:53.998Z,9.75
2023-02-22T06:50:31.491Z,8.25
2023-02-22T06:52:59.197Z,8.40
2023-02-22T06:55:28.628Z,7.97
2023-02-22T06:57:56.079Z,7.45
2023-02-22T07:00:25.923Z,8.00
2023-02-22T07:02:54.209Z,8.07
2023-02-22T07:05:22.863Z,8.63
2023-02-22T07:07:52.687Z,8.07
2023-02-22T07:10:29.695Z,7.60
2023-02-22T07:12:57.512Z,6.95
2023-02-22T07:15:26.455Z,6.40
2023-02-22T07:17:53.960Z,6.20
2023-02-22T07:20:22.621Z,6.22
2023-02-22T07:22:50.644Z,12.93
2023-02-22T07:25:19.326Z,6.12
2023-02-22T07:27:47.361Z,7.12
2023-02-22T07:30:19.661Z,5.72
2023-02-22T07:32:47.501Z,4.72
2023-02-22T07:35:20.609Z,6.07
2023-02-22T07:37:48.342Z,6.15
2023-02-22T07:40:16.818Z,6.70
2023-02-22T07:43:07.057Z,6.40
2023-02-22T07:45:35.643Z,6.15
2023-02-22T07:48:04.819Z,6.15
2023-02-22T07:50:33.462Z,6.45
2023-02-22T07:53:03.290Z,5.62
2023-02-22T07:55:32.397Z,6.05
2023-02-22T07:58:01.970Z,5.80
2023-02-22T08:00:35.119Z,5.28
2023-02-22T08:03:05.222Z,5.68
2023-02-22T08:05:33.483Z,5.47
2023-02-22T08:08:01.682Z,5.55
2023-02-22T08:10:29.469Z,5.50
2023-02-22T08:12:57.057Z,5.43
2023-02-22T08:15:25.492Z,6.53
2023-02-22T08:17:53.651Z,5.87
2023-02-22T08:20:22.097Z,5.12
2023-02-22T08:22:50.088Z,6.10
2023-02-22T08:25:20.301Z,6.45
2023-02-22T08:27:47.984Z,5.60
2023-02-22T08:30:18.490Z,5.72
2023-02-22T08:32:47.562Z,5.97
2023-02-22T08:35:16.780Z,5.10
2023-02-22T08:37:56.265Z,5.75
2023-02-22T08:40:25.810Z,5.03
2023-02-22T08:42:53.764Z,5.60
2023-02-22T08:45:21.146Z,5.37
2023-02-22T08:47:49.016Z,5.80
2023-02-22T08:50:22.703Z,6.40
2023-02-22T08:52:52.214Z,6.05
2023-02-22T08:55:23.958Z,6.50
2023-02-22T08:57:51.729Z,6.65
2023-02-22T09:00:20.714Z,5.70
2023-02-22T09:02:48.229Z,6.35
2023-02-22T09:05:17.048Z,5.97
2023-02-22T09:07:45.122Z,5.50
2023-02-22T09:10:18.449Z,5.65
2023-02-22T09:12:46.296Z,5.55
2023-02-22T09:15:14.884Z,5.72
2023-02-22T09:17:42.292Z,5.68
2023-02-22T09:20:12.294Z,5.68
2023-02-22T09:22:40.226Z,5.55
2023-02-22T09:25:16.178Z,5.75
2023-02-22T09:27:47.900Z,5.32
2023-02-22T09:30:23.753Z,5.43
2023-02-22T09:32:54.846Z,5.40
2023-02-22T09:35:27.420Z,5.37
2023-02-22T09:37:57.435Z,5.47
2023-02-22T09:40:30.457Z,4.87
2023-02-22T09:43:04.408Z,5.65
2023-02-22T09:45:36.928Z,5.00
2023-02-22T09:48:21.179Z,5.97
2023-02-22T09:50:51.494Z,5.57
2023-02-22T09:53:31.789Z,6.40
2023-02-22T09:56:07.208Z,5.60
2023-02-22T09:58:41.833Z,5.68
2023-02-22T10:01:26.909Z,6.15
2023-02-22T10:04:05.966Z,5.68
2023-02-22T10:06:34.822Z,6.40
2023-02-22T10:09:08.014Z,5.70
2023-02-22T10:11:57.637Z,5.60
2023-02-22T10:14:44.146Z,5.72
2023-02-22T10:17:30.453Z,7.40
2023-02-22T10:20:22.388Z,5.90
2023-02-22T10:22:56.671Z,6.93
2023-02-22T10:25:27.290Z,6.40
2023-02-22T10:28:06.375Z,5.97
2023-02-22T10:30:37.433Z,6.57
2023-02-22T10:33:17.682Z,6.32
2023-02-22T10:35:47.061Z,6.53
2023-02-22T10:38:20.204Z,6.97
2023-02-22T10:40:57.038Z,6.72
2023-02-22T10:43:25.777Z,6.87
2023-02-22T10:45:55.988Z,6.47
2023-02-22T10:48:25.313Z,7.37
2023-02-22T10:50:54.808Z,7.30
2023-02-22T10:53:23.132Z,6.47
2023-02-22T10:56:22.073Z,5.90
2023-02-22T10:58:59.559Z,6.00
2023-02-22T11:01:28.878Z,6.82
2023-02-22T11:04:08.828Z,6.30
2023-02-22T11:06:36.781Z,6.32
2023-02-22T11:09:17.914Z,6.35
2023-02-22T11:11:47.526Z,5.93
2023-02-22T11:14:29.441Z,7.35
2023-02-22T11:16:58.893Z,7.60
2023-02-22T11:19:31.690Z,8.13
2023-02-22T11:22:05.231Z,9.90
2023-02-22T11:24:48.400Z,9.60
2023-02-22T11:27:38.605Z,10.95
2023-02-22T11:30:30.435Z,24.55
2023-02-22T11:33:03.407Z,14.68
2023-02-22T11:35:38.040Z,13.55
2023-02-22T11:38:21.033Z,11.38
2023-02-22T11:41:14.805Z,10.88
2023-02-22T11:43:47.384Z,10.38
2023-02-22T11:46:18.066Z,9.70
2023-02-22T11:49:18.130Z,9.63
2023-02-22T11:52:16.968Z,8.55
2023-02-22T11:55:04.556Z,8.68
2023-02-22T11:58:08.317Z,9.15
2023-02-22T12:01:00.593Z,10.45
2023-02-22T12:03:34.273Z,9.48
2023-02-22T12:06:10.860Z,8.77
2023-02-22T12:09:04.359Z,9.57
2023-02-22T12:11:54.910Z,9.88
2023-02-22T12:14:43.581Z,9.68
2023-02-22T12:17:23.848Z,8.57
2023-02-22T12:19:55.500Z,8.60
2023-02-22T12:22:27.384Z,8.93
2023-02-22T12:27:41.303Z,8.02
2023-02-22T12:30:18.589Z,8.43
2023-02-22T12:32:53.333Z,8.30
2023-02-22T12:35:24.552Z,8.68
2023-02-22T12:38:04.686Z,8.77
2023-02-22T12:40:37.756Z,7.93
2023-02-22T12:43:20.684Z,7.47
2023-02-22T12:46:03.077Z,7.10
2023-02-22T12:49:01.043Z,6.85
2023-02-22T12:51:37.741Z,7.53
2023-02-22T12:54:14.526Z,4.45
2023-02-22T12:56:48.932Z,4.50
2023-02-22T12:59:25.510Z,4.43
2023-02-22T13:02:14.683Z,4.03
2023-02-22T13:04:42.110Z,5.22
2023-02-22T13:07:38.331Z,3.20
2023-02-22T13:10:24.598Z,2.08
2023-02-22T13:13:15.276Z,2.30
2023-02-22T13:16:16.012Z,1.73
2023-02-22T13:18:58.056Z,1.95
2023-02-22T13:21:43.735Z,2.58
2023-02-22T13:24:21.269Z,3.05
2023-02-22T13:27:04.277Z,2.90
2023-02-22T13:29:38.835Z,3.47
2023-02-22T13:32:28.135Z,4.28
2023-02-22T13:35:17.541Z,6.37
2023-02-22T13:38:15.788Z,5.70
2023-02-22T13:41:15.096Z,6.45
2023-02-22T13:43:59.992Z,6.85
2023-02-22T13:46:36.839Z,4.53
2023-02-22T13:49:25.810Z,4.82
2023-02-22T13:52:02.670Z,5.15
2023-02-22T13:54:39.934Z,5.07
2023-02-22T13:57:25.780Z,4.05
2023-02-22T14:00:20.710Z,4.75
2023-02-22T14:03:40.485Z,4.28
2023-02-22T14:06:10.486Z,4.40
2023-02-22T14:08:41.290Z,6.32
2023-02-22T14:11:15.297Z,5.62
2023-02-22T14:13:55.581Z,5.07
2023-02-22T14:16:25.064Z,4.45
2023-02-22T14:19:06.578Z,3.25
2023-02-22T14:21:35.174Z,3.62
2023-02-22T14:24:16.235Z,4.10
2023-02-22T14:26:54.617Z,4.10
2023-02-22T14:29:22.353Z,3.37
2023-02-22T14:31:52.797Z,3.85
2023-02-22T14:34:41.562Z,3.55
2023-02-22T14:37:20.049Z,3.58
2023-02-22T14:40:12.744Z,3.75
2023-02-22T14:42:46.106Z,3.50
2023-02-22T14:45:28.569Z,3.35
2023-02-22T14:48:16.438Z,3.05
2023-02-22T14:50:51.369Z,3.30
2023-02-22T14:53:40.571Z,3.33
2023-02-22T14:56:29.834Z,3.80
2023-02-22T14:59:13.437Z,3.85
2023-02-22T15:01:52.728Z,3.90
2023-02-22T15:04:28.417Z,3.97
2023-02-22T15:06:57.628Z,5.43
2023-02-22T15:09:30.557Z,6.65
2023-02-22T15:12:05.244Z,5.50
2023-02-22T15:14:37.802Z,5.57
2023-02-22T15:17:21.261Z,5.10
2023-02-22T15:19:49.779Z,5.75
2023-02-22T15:22:24.770Z,6.47
2023-02-22T15:25:00.760Z,6.00
2023-02-22T15:27:28.775Z,6.10
2023-02-22T15:30:04.817Z,6.15
2023-02-22T15:32:38.710Z,6.18
2023-02-22T15:35:27.149Z,9.02
2023-02-22T15:38:21.609Z,8.45
2023-02-22T15:41:00.167Z,6.55
2023-02-22T15:43:28.588Z,5.72
2023-02-22T15:45:56.841Z,6.12
2023-02-22T15:48:26.725Z,6.70
2023-02-22T15:51:07.064Z,6.68
2023-02-22T15:53:39.891Z,7.60
2023-02-22T15:56:11.392Z,8.20
2023-02-22T15:58:39.329Z,6.90
2023-02-22T16:01:09.247Z,4.90
2023-02-22T16:03:45.924Z,5.85
2023-02-22T16:06:33.438Z,8.50
2023-02-22T16:09:11.306Z,7.93
2023-02-22T16:11:43.381Z,6.20
2023-02-22T16:14:37.237Z,8.00
2023-02-22T16:17:41.189Z,8.85
2023-02-22T16:20:14.346Z,36.08
2023-02-22T16:22:49.095Z,53.33
2023-02-22T16:25:21.395Z,16.62
2023-02-22T16:30:39.436Z,12.80
2023-02-22T16:33:13.407Z,15.10
2023-02-22T16:35:48.490Z,15.48
2023-02-22T16:38:17.036Z,14.20
2023-02-22T16:40:58.431Z,15.93
2023-02-22T16:43:29.765Z,14.73
2023-02-22T16:45:58.139Z,11.10
2023-02-22T16:48:27.083Z,11.18
2023-02-22T16:50:57.047Z,11.00
2023-02-22T16:53:26.905Z,11.18
2023-02-22T16:55:58.093Z,12.43
2023-02-22T16:58:29.273Z,12.73
2023-02-22T17:00:57.435Z,14.00
2023-02-22T17:03:25.574Z,15.27
2023-02-22T17:05:53.266Z,14.07
2023-02-22T17:08:20.967Z,14.52
2023-02-22T17:10:51.488Z,14.02
2023-02-22T17:13:26.393Z,12.87
2023-02-22T17:15:56.391Z,13.20
2023-02-22T17:18:28.411Z,14.05
2023-02-22T17:20:56.086Z,14.52
2023-02-22T17:23:24.419Z,13.88
2023-02-22T17:25:54.070Z,13.45
2023-02-22T17:28:23.685Z,13.98
2023-02-22T17:30:52.720Z,14.55
2023-02-22T17:33:22.761Z,14.63
2023-02-22T17:35:50.265Z,15.18
2023-02-22T17:38:18.510Z,14.55
2023-02-22T17:40:54.712Z,14.48
2023-02-22T17:43:23.108Z,13.98
2023-02-22T17:45:50.700Z,12.88
2023-02-22T17:48:18.699Z,12.93
2023-02-22T17:50:47.836Z,13.77
2023-02-22T17:53:18.112Z,13.30
2023-02-22T17:55:45.782Z,13.07
2023-02-22T17:58:14.684Z,13.52
2023-02-22T18:00:45.548Z,13.20
2023-02-22T18:03:16.385Z,13.15
2023-02-22T18:05:46.329Z,12.85
2023-02-22T18:08:15.010Z,14.18
2023-02-22T18:10:43.775Z,12.75
2023-02-22T18:13:17.894Z,12.63
2023-02-22T18:15:46.517Z,12.75
2023-02-22T18:18:16.159Z,14.13
2023-02-22T18:20:51.358Z,13.57
2023-02-22T18:23:22.985Z,15.98
2023-02-22T18:26:09.247Z,16.02
2023-02-22T18:28:38.699Z,14.60
2023-02-22T18:31:08.539Z,17.25
2023-02-22T18:33:36.157Z,21.90
2023-02-22T18:36:04.618Z,25.55
2023-02-22T18:38:32.054Z,25.73
2023-02-22T18:41:04.844Z,27.92
2023-02-22T18:43:36.916Z,24.60
2023-02-22T18:46:12.180Z,23.55
2023-02-22T18:48:40.619Z,21.50
2023-02-22T18:51:10.717Z,27.30
2023-02-22T18:53:40.812Z,34.53
2023-02-22T18:56:15.180Z,36.17
2023-02-22T18:58:45.979Z,39.33
2023-02-22T19:01:18.408Z,37.55
2023-02-22T19:03:48.828Z,33.25
2023-02-22T19:06:17.785Z,20.40
2023-02-22T19:08:46.139Z,20.23
2023-02-22T19:11:17.922Z,17.87
2023-02-22T19:13:46.523Z,17.12
2023-02-22T19:16:15.196Z,16.58
2023-02-22T19:18:44.124Z,15.23
2023-02-22T19:21:13.939Z,15.07
2023-02-22T19:23:45.640Z,14.20
2023-02-22T19:26:18.814Z,13.32
2023-02-22T19:28:47.355Z,13.43
2023-02-22T19:31:46.225Z,13.20
2023-02-22T19:34:15.380Z,12.80
2023-02-22T19:36:46.235Z,13.15
2023-02-22T19:39:14.740Z,13.50
2023-02-22T19:41:42.696Z,13.00
2023-02-22T19:44:10.622Z,12.00
2023-02-22T19:46:38.509Z,11.80
2023-02-22T19:49:07.173Z,12.35
2023-02-22T19:51:34.838Z,13.38
2023-02-22T19:54:04.953Z,12.93
2023-02-22T19:56:35.123Z,12.52
2023-02-22T19:59:13.561Z,12.88
2023-02-22T20:01:44.141Z,12.88
2023-02-22T20:04:18.099Z,12.50
2023-02-22T20:06:46.242Z,11.25
2023-02-22T20:09:18.869Z,11.12
2023-02-22T20:14:23.438Z,12.25
2023-02-22T20:16:51.882Z,11.63
2023-02-22T20:19:21.042Z,11.27
2023-02-22T20:21:49.054Z,11.07
2023-02-22T20:24:18.300Z,10.73
2023-02-22T20:26:46.826Z,9.88
2023-02-22T20:29:15.190Z,11.38
2023-02-22T20:31:43.462Z,10.05
2023-02-22T20:34:11.629Z,12.02
2023-02-22T20:36:41.384Z,9.90
2023-02-22T20:39:13.326Z,9.88
2023-02-22T20:41:42.836Z,12.20
2023-02-22T20:44:13.505Z,11.70
2023-02-22T20:46:41.715Z,11.15
2023-02-22T20:49:11.352Z,9.63
2023-02-22T20:51:42.112Z,9.27
2023-02-22T20:54:12.144Z,8.90
2023-02-22T20:56:42.146Z,8.57
2023-02-22T20:59:14.899Z,9.02
2023-02-22T21:01:42.312Z,8.20
2023-02-22T21:04:10.700Z,8.60
2023-02-22T21:06:39.641Z,8.25
2023-02-22T21:09:10.301Z,8.10
2023-02-22T21:11:38.917Z,7.82
2023-02-22T21:14:06.341Z,8.25
2023-02-22T21:16:36.195Z,7.85
2023-02-22T21:19:07.553Z,7.85
2023-02-22T21:21:35.589Z,8.32
2023-02-22T21:24:03.073Z,9.38
2023-02-22T21:26:32.753Z,8.00
2023-02-22T21:29:03.312Z,8.25
2023-02-22T21:31:32.048Z,7.80
2023-02-22T21:34:00.356Z,7.70
2023-02-22T21:36:28.388Z,7.20
2023-02-22T21:38:58.716Z,7.37
2023-02-22T21:41:28.840Z,8.80
2023-02-22T21:43:57.957Z,8.02
2023-02-22T21:46:27.548Z,7.78
2023-02-22T21:48:58.618Z,7.35
2023-02-22T21:51:31.924Z,7.68
2023-02-22T21:54:05.050Z,6.97
2023-02-22T21:56:36.305Z,7.30
2023-02-22T21:59:11.889Z,8.43
2023-02-22T22:01:46.981Z,7.65
2023-02-22T22:04:19.268Z,7.82
2023-02-22T22:06:49.040Z,8.13
2023-02-22T22:09:20.363Z,7.82
2023-02-22T22:11:52.022Z,8.07
2023-02-22T22:14:23.063Z,8.40
2023-02-22T22:16:53.425Z,7.85
2023-02-22T22:19:21.096Z,8.20
2023-02-22T22:21:50.124Z,8.52
2023-02-22T22:24:20.462Z,9.77
2023-02-22T22:26:54.642Z,8.35
2023-02-22T22:29:24.395Z,8.43
2023-02-22T22:31:52.555Z,7.80
2023-02-22T22:34:20.364Z,9.10
2023-02-22T22:36:47.941Z,8.98
2023-02-22T22:39:16.113Z,8.10
2023-02-22T22:41:44.312Z,9.30
2023-02-22T22:44:16.104Z,8.68
2023-02-22T22:46:49.091Z,8.98
2023-02-22T22:49:16.972Z,9.23
2023-02-22T22:51:47.348Z,8.20
2023-02-22T22:54:14.786Z,8.75
2023-02-22T22:56:42.188Z,9.70
2023-02-22T22:59:10.691Z,8.63
2023-02-22T23:01:40.673Z,7.90
2023-02-22T23:04:10.812Z,7.53
2023-02-22T23:06:41.061Z,7.85
2023-02-22T23:09:18.716Z,8.55
2023-02-22T23:11:50.627Z,7.80
2023-02-22T23:14:32.131Z,8.45
2023-02-22T23:17:03.257Z,8.00
2023-02-22T23:19:32.569Z,8.85
2023-02-22T23:22:01.388Z,9.02
2023-02-22T23:24:28.818Z,8.32
2023-02-22T23:27:07.137Z,8.07
2023-02-22T23:29:38.093Z,8.88
2023-02-22T23:32:06.209Z,8.60
2023-02-22T23:34:35.801Z,8.70
2023-02-22T23:37:03.731Z,8.15
2023-02-22T23:39:31.097Z,8.80
2023-02-22T23:41:59.238Z,7.82
2023-02-22T23:44:28.106Z,8.55
2023-02-22T23:46:55.896Z,8.15
2023-02-22T23:49:26.300Z,8.60
2023-02-22T23:51:54.276Z,8.18
2023-02-22T23:54:24.498Z,8.18
2023-02-22T23:56:58.511Z,8.57
2023-02-22T23:59:27.253Z,8.18
